createdAt,value
2023-01-18T00:01:03.983Z,2.12
2023-01-18T00:06:05.294Z,2.35
2023-01-18T00:08:33.669Z,2.22
2023-01-18T00:11:09.217Z,2.20
2023-01-18T00:13:36.284Z,2.25
2023-01-18T00:16:15.602Z,2.30
2023-01-18T00:18:43.197Z,2.58
2023-01-18T00:21:12.309Z,2.20
2023-01-18T00:23:39.654Z,2.75
2023-01-18T00:26:09.089Z,2.60
2023-01-18T00:28:36.609Z,2.90
2023-01-18T00:31:10.056Z,2.40
2023-01-18T00:33:37.047Z,2.65
2023-01-18T00:36:04.624Z,2.75
2023-01-18T00:38:31.588Z,3.00
2023-01-18T00:40:58.531Z,3.17
2023-01-18T00:43:40.811Z,2.53
2023-01-18T00:46:15.913Z,3.20
2023-01-18T00:48:43.058Z,3.12
2023-01-18T00:51:12.242Z,2.90
2023-01-18T00:53:39.442Z,3.05
2023-01-18T00:56:11.267Z,3.20
2023-01-18T00:58:38.334Z,3.22
2023-01-18T01:01:08.774Z,3.20
2023-01-18T01:03:55.155Z,3.50
2023-01-18T01:06:46.356Z,3.15
2023-01-18T01:09:24.644Z,3.55
2023-01-18T01:12:10.168Z,3.37
2023-01-18T01:14:58.278Z,3.60
2023-01-18T01:17:43.906Z,3.42
2023-01-18T01:20:30.052Z,3.92
2023-01-18T01:23:15.683Z,3.40
2023-01-18T01:26:01.384Z,3.53
2023-01-18T01:28:28.498Z,3.65
2023-01-18T01:31:00.607Z,3.30
2023-01-18T01:33:28.654Z,3.40
2023-01-18T01:36:00.148Z,3.20
2023-01-18T01:38:27.679Z,3.72
2023-01-18T01:41:08.762Z,3.22
2023-01-18T01:43:45.021Z,3.20
2023-01-18T01:46:32.019Z,2.62
2023-01-18T01:49:18.348Z,3.93
2023-01-18T01:52:05.960Z,3.50
2023-01-18T01:54:44.609Z,3.58
2023-01-18T01:57:38.859Z,3.28
2023-01-18T02:00:09.915Z,3.08
2023-01-18T02:02:37.064Z,2.97
2023-01-18T02:05:06.666Z,2.90
2023-01-18T02:07:33.858Z,2.80
2023-01-18T02:10:01.030Z,3.00
2023-01-18T02:12:28.520Z,3.10
2023-01-18T02:14:56.110Z,3.10
2023-01-18T02:17:54.105Z,3.87
2023-01-18T02:20:44.623Z,3.20
2023-01-18T02:23:35.126Z,3.58
2023-01-18T02:26:46.576Z,3.50
2023-01-18T02:29:38.372Z,3.33
2023-01-18T02:32:21.811Z,3.35
2023-01-18T02:34:50.871Z,3.35
2023-01-18T02:37:21.410Z,3.37
2023-01-18T02:39:59.978Z,4.22
2023-01-18T02:42:46.858Z,4.40
2023-01-18T02:45:36.117Z,4.32
2023-01-18T02:48:03.644Z,3.53
2023-01-18T02:50:30.617Z,3.50
2023-01-18T02:52:57.795Z,3.92
2023-01-18T02:55:42.668Z,3.90
2023-01-18T02:58:29.791Z,3.90
2023-01-18T03:01:07.462Z,4.40
2023-01-18T03:03:35.636Z,3.80
2023-01-18T03:06:03.804Z,3.45
2023-01-18T03:08:44.560Z,3.20
2023-01-18T03:11:18.359Z,3.75
2023-01-18T03:14:16.316Z,3.70
2023-01-18T03:17:06.879Z,3.17
2023-01-18T03:20:03.783Z,3.45
2023-01-18T03:22:54.672Z,3.17
2023-01-18T03:25:26.614Z,3.00
2023-01-18T03:28:12.940Z,3.12
2023-01-18T03:31:00.232Z,3.40
2023-01-18T03:33:46.028Z,3.42
2023-01-18T03:36:18.254Z,3.08
2023-01-18T03:38:47.607Z,3.50
2023-01-18T03:41:15.508Z,3.15
2023-01-18T03:43:42.672Z,3.10
2023-01-18T03:46:09.882Z,3.65
2023-01-18T03:48:36.805Z,5.10
2023-01-18T03:51:17.628Z,5.65
2023-01-18T03:53:51.180Z,3.08
2023-01-18T03:56:33.736Z,2.90
2023-01-18T03:59:03.677Z,3.00
2023-01-18T04:01:30.996Z,2.90
2023-01-18T04:03:57.971Z,3.03
2023-01-18T04:06:26.013Z,3.10
2023-01-18T04:08:53.424Z,3.12
2023-01-18T04:11:20.409Z,3.40
2023-01-18T04:13:47.272Z,3.12
2023-01-18T04:18:40.953Z,2.90
2023-01-18T04:21:07.940Z,3.22
2023-01-18T04:23:34.813Z,3.20
2023-01-18T04:26:01.686Z,3.08
2023-01-18T04:28:29.081Z,3.03
2023-01-18T04:30:57.135Z,2.78
2023-01-18T04:33:26.940Z,2.95
2023-01-18T04:35:56.683Z,2.67
2023-01-18T04:38:23.796Z,2.53
2023-01-18T04:40:50.954Z,2.80
2023-01-18T04:43:18.115Z,2.70
2023-01-18T04:45:54.312Z,2.90
2023-01-18T04:48:21.270Z,2.30
2023-01-18T04:50:48.676Z,2.62
2023-01-18T04:53:16.580Z,2.50
2023-01-18T04:55:44.278Z,2.70
2023-01-18T04:58:11.170Z,2.53
2023-01-18T05:00:40.975Z,2.35
2023-01-18T05:03:09.461Z,2.40
2023-01-18T05:05:36.456Z,2.97
2023-01-18T05:08:03.725Z,2.78
2023-01-18T05:10:30.584Z,2.47
2023-01-18T05:12:57.770Z,2.60
2023-01-18T05:15:24.890Z,2.37
2023-01-18T05:20:18.549Z,2.53
2023-01-18T05:22:45.402Z,2.62
2023-01-18T05:27:38.943Z,2.55
2023-01-18T05:32:33.868Z,2.30
2023-01-18T05:37:27.463Z,2.20
2023-01-18T05:42:20.966Z,2.25
2023-01-18T05:47:14.477Z,2.80
2023-01-18T05:49:42.087Z,2.40
2023-01-18T05:52:09.059Z,2.60
2023-01-18T05:54:35.923Z,2.25
2023-01-18T05:57:02.742Z,2.00
2023-01-18T06:01:56.764Z,1.42
2023-01-18T06:04:23.738Z,1.65
2023-01-18T06:06:50.621Z,1.12
2023-01-18T06:11:44.225Z,1.40
2023-01-18T06:14:11.097Z,1.15
2023-01-18T06:16:37.980Z,0.98
2023-01-18T06:19:05.835Z,1.35
2023-01-18T06:21:32.749Z,1.30
2023-01-18T06:23:59.638Z,1.12
2023-01-18T06:26:26.553Z,1.20
2023-01-18T06:28:53.694Z,1.10
2023-01-18T06:31:23.715Z,1.02
2023-01-18T06:33:50.632Z,1.10
2023-01-18T06:36:17.491Z,1.00
2023-01-18T06:41:11.039Z,0.90
2023-01-18T06:43:37.890Z,0.80
2023-01-18T06:48:34.742Z,1.40
2023-01-18T06:51:01.633Z,1.10
2023-01-18T06:53:28.511Z,0.95
2023-01-18T06:56:00.151Z,1.10
2023-01-18T06:58:27.766Z,1.25
2023-01-18T07:00:58.687Z,1.20
2023-01-18T07:03:26.265Z,1.20
2023-01-18T07:06:00.311Z,1.17
2023-01-18T07:08:28.246Z,1.50
2023-01-18T07:10:55.542Z,1.65
2023-01-18T07:13:22.538Z,1.73
2023-01-18T07:15:59.396Z,1.67
2023-01-18T07:18:29.061Z,1.87
2023-01-18T07:21:08.973Z,1.62
2023-01-18T07:23:38.006Z,1.90
2023-01-18T07:26:15.731Z,1.90
2023-01-18T07:28:46.953Z,2.10
2023-01-18T07:31:14.526Z,2.25
2023-01-18T07:33:41.502Z,2.08
2023-01-18T07:36:10.962Z,2.15
2023-01-18T07:38:39.087Z,2.22
2023-01-18T07:41:14.448Z,2.50
2023-01-18T07:43:43.929Z,2.70
2023-01-18T07:46:13.155Z,2.10
2023-01-18T07:48:40.062Z,2.45
2023-01-18T07:51:08.811Z,1.95
2023-01-18T07:53:37.464Z,2.03
2023-01-18T07:56:08.704Z,2.30
2023-01-18T07:58:36.488Z,2.00
2023-01-18T08:01:05.749Z,1.92
2023-01-18T08:03:33.019Z,1.40
2023-01-18T08:06:00.816Z,1.70
2023-01-18T08:08:29.170Z,1.50
2023-01-18T08:10:57.300Z,1.12
2023-01-18T08:13:25.001Z,1.50
2023-01-18T08:15:55.727Z,1.77
2023-01-18T08:18:23.826Z,1.98
2023-01-18T08:20:50.865Z,1.80
2023-01-18T08:23:17.868Z,1.95
2023-01-18T08:25:45.263Z,1.37
2023-01-18T08:28:12.303Z,1.42
2023-01-18T08:30:41.307Z,1.50
2023-01-18T08:33:08.895Z,1.40
2023-01-18T08:35:48.559Z,1.80
2023-01-18T08:38:16.422Z,1.52
2023-01-18T08:40:43.482Z,1.50
2023-01-18T08:43:11.934Z,1.33
2023-01-18T08:45:38.938Z,1.50
2023-01-18T08:48:09.448Z,1.67
2023-01-18T08:50:36.889Z,1.60
2023-01-18T08:53:04.416Z,1.95
2023-01-18T08:55:31.757Z,2.10
2023-01-18T08:57:59.143Z,2.25
2023-01-18T09:00:30.256Z,1.62
2023-01-18T09:02:58.370Z,1.70
2023-01-18T09:05:27.267Z,1.67
2023-01-18T09:07:54.955Z,1.70
2023-01-18T09:10:22.811Z,1.40
2023-01-18T09:12:50.707Z,1.70
2023-01-18T09:15:19.082Z,1.42
2023-01-18T09:17:46.510Z,1.50
2023-01-18T09:20:13.454Z,1.30
2023-01-18T09:22:40.407Z,1.52
2023-01-18T09:25:07.358Z,1.20
2023-01-18T09:27:34.378Z,1.35
2023-01-18T09:30:01.251Z,1.40
2023-01-18T09:32:28.171Z,1.58
2023-01-18T09:34:55.815Z,1.60
2023-01-18T09:37:22.657Z,1.50
2023-01-18T09:42:25.406Z,1.30
2023-01-18T09:44:58.907Z,1.60
2023-01-18T09:47:28.843Z,1.65
2023-01-18T09:49:57.855Z,1.87
2023-01-18T09:52:33.305Z,1.60
2023-01-18T09:55:00.134Z,1.85
2023-01-18T10:00:20.672Z,1.70
2023-01-18T10:02:50.120Z,1.90
2023-01-18T10:05:23.677Z,2.05
2023-01-18T10:08:04.927Z,2.30
2023-01-18T10:10:38.357Z,2.40
2023-01-18T10:13:22.475Z,2.40
2023-01-18T10:15:49.782Z,2.45
2023-01-18T10:18:17.428Z,2.65
2023-01-18T10:20:51.423Z,2.55
2023-01-18T10:23:41.614Z,2.17
2023-01-18T10:26:22.288Z,1.80
2023-01-18T10:29:03.494Z,1.70
2023-01-18T10:31:59.212Z,2.00
2023-01-18T10:34:35.175Z,1.87
2023-01-18T10:37:29.169Z,1.90
2023-01-18T10:40:00.556Z,1.75
2023-01-18T10:42:34.601Z,1.90
2023-01-18T10:45:01.515Z,1.87
2023-01-18T10:47:28.616Z,1.73
2023-01-18T10:50:00.301Z,1.98
2023-01-18T10:52:29.766Z,2.42
2023-01-18T10:55:02.201Z,2.10
2023-01-18T10:57:50.191Z,1.73
2023-01-18T11:02:51.850Z,1.80
2023-01-18T11:05:29.233Z,1.67
2023-01-18T11:10:41.659Z,1.70
2023-01-18T11:13:30.336Z,1.90
2023-01-18T11:16:14.349Z,1.40
2023-01-18T11:19:05.210Z,1.70
2023-01-18T11:21:45.812Z,1.37
2023-01-18T11:24:24.955Z,1.58
2023-01-18T11:27:03.673Z,1.20
2023-01-18T11:29:35.028Z,1.30
2023-01-18T11:32:06.986Z,1.60
2023-01-18T11:34:34.975Z,1.42
2023-01-18T11:37:02.470Z,1.55
2023-01-18T11:39:37.246Z,1.70
2023-01-18T11:42:21.151Z,1.87
2023-01-18T11:45:01.006Z,1.65
2023-01-18T11:47:34.977Z,1.50
2023-01-18T11:50:21.034Z,1.73
2023-01-18T11:53:00.820Z,1.87
2023-01-18T11:55:39.160Z,1.60
2023-01-18T11:58:17.054Z,1.50
2023-01-18T12:01:11.413Z,1.65
2023-01-18T12:04:23.397Z,1.60
2023-01-18T12:07:03.657Z,1.80
2023-01-18T12:09:52.244Z,1.60
2023-01-18T12:12:28.020Z,1.55
2023-01-18T12:15:28.885Z,1.40
2023-01-18T12:18:12.374Z,1.70
2023-01-18T12:20:46.698Z,1.48
2023-01-18T12:23:25.734Z,1.70
2023-01-18T12:26:20.541Z,1.80
2023-01-18T12:29:06.847Z,2.00
2023-01-18T12:31:42.649Z,1.65
2023-01-18T12:34:20.633Z,1.70
2023-01-18T12:37:45.084Z,2.60
2023-01-18T12:40:24.003Z,2.60
2023-01-18T12:42:50.842Z,3.05
2023-01-18T12:45:40.906Z,2.50
2023-01-18T12:48:16.106Z,2.50
2023-01-18T12:50:45.159Z,2.30
2023-01-18T12:53:15.424Z,3.00
2023-01-18T12:55:45.755Z,2.95
2023-01-18T12:58:19.218Z,2.50
2023-01-18T13:00:50.452Z,2.67
2023-01-18T13:03:20.479Z,2.55
2023-01-18T13:05:55.709Z,2.78
2023-01-18T13:08:32.467Z,2.55
2023-01-18T13:11:09.536Z,3.10
2023-01-18T13:13:36.615Z,3.25
2023-01-18T13:16:21.723Z,3.28
2023-01-18T13:18:59.809Z,2.97
2023-01-18T13:21:34.502Z,2.90
2023-01-18T13:24:01.317Z,2.90
2023-01-18T13:29:26.440Z,3.00
2023-01-18T13:31:53.341Z,2.95
2023-01-18T13:34:24.971Z,2.80
2023-01-18T13:36:53.321Z,2.60
2023-01-18T13:39:23.255Z,2.87
2023-01-18T13:42:05.270Z,2.85
2023-01-18T13:44:47.400Z,2.97
2023-01-18T13:47:44.079Z,5.30
2023-01-18T13:50:39.466Z,7.18
2023-01-18T13:53:15.141Z,5.37
2023-01-18T13:55:59.114Z,7.07
2023-01-18T13:58:28.800Z,6.55
2023-01-18T14:00:58.618Z,7.10
2023-01-18T14:03:31.446Z,10.75
2023-01-18T14:05:58.796Z,6.47
2023-01-18T14:08:31.620Z,8.55
2023-01-18T14:11:04.763Z,7.50
2023-01-18T14:13:47.699Z,4.35
2023-01-18T14:16:19.878Z,4.25
2023-01-18T14:18:52.981Z,3.45
2023-01-18T14:21:35.553Z,4.20
2023-01-18T14:24:19.909Z,3.70
2023-01-18T14:26:47.584Z,3.50
2023-01-18T14:29:46.689Z,3.42
2023-01-18T14:32:23.183Z,3.12
2023-01-18T14:35:00.450Z,3.33
2023-01-18T14:37:29.022Z,2.80
2023-01-18T14:40:14.747Z,3.37
2023-01-18T14:42:51.905Z,3.40
2023-01-18T14:47:47.923Z,3.50
2023-01-18T14:50:18.565Z,3.12
2023-01-18T14:52:45.508Z,3.70
2023-01-18T14:55:33.179Z,3.67
2023-01-18T14:58:15.664Z,3.60
2023-01-18T15:00:55.656Z,3.53
2023-01-18T15:03:30.046Z,5.00
2023-01-18T15:06:05.594Z,6.90
2023-01-18T15:08:34.394Z,5.97
2023-01-18T15:11:02.626Z,3.85
2023-01-18T15:13:29.982Z,4.65
2023-01-18T15:16:02.293Z,5.22
2023-01-18T15:18:29.512Z,5.35
2023-01-18T15:21:06.482Z,4.85
2023-01-18T15:23:35.650Z,5.70
2023-01-18T15:26:02.951Z,7.35
2023-01-18T15:28:34.185Z,8.77
2023-01-18T15:31:08.045Z,14.43
2023-01-18T15:33:35.496Z,15.75
2023-01-18T15:36:02.663Z,17.62
2023-01-18T15:38:29.949Z,17.67
2023-01-18T15:41:01.584Z,17.60
2023-01-18T15:43:37.592Z,16.65
2023-01-18T15:46:08.038Z,7.05
2023-01-18T15:48:47.505Z,7.30
2023-01-18T15:51:14.515Z,4.30
2023-01-18T15:53:52.708Z,3.90
2023-01-18T15:56:26.506Z,2.25
2023-01-18T15:58:56.069Z,2.37
2023-01-18T16:01:31.997Z,2.78
2023-01-18T16:04:06.075Z,3.30
2023-01-18T16:06:37.656Z,7.10
2023-01-18T16:09:12.168Z,9.68
2023-01-18T16:11:46.606Z,7.68
2023-01-18T16:14:28.423Z,10.07
2023-01-18T16:17:05.347Z,12.50
2023-01-18T16:19:46.174Z,13.23
2023-01-18T16:22:17.839Z,11.85
2023-01-18T16:24:51.066Z,11.20
2023-01-18T16:27:20.246Z,10.82
2023-01-18T16:30:08.191Z,11.50
2023-01-18T16:35:20.899Z,14.02
2023-01-18T16:37:48.740Z,13.27
2023-01-18T16:40:21.470Z,13.18
2023-01-18T16:43:03.360Z,15.50
2023-01-18T16:45:31.793Z,14.20
2023-01-18T16:47:59.031Z,15.48
2023-01-18T16:50:29.266Z,15.02
2023-01-18T16:52:56.482Z,14.90
2023-01-18T16:55:23.559Z,9.82
2023-01-18T16:57:56.322Z,10.70
2023-01-18T17:00:25.067Z,8.27
2023-01-18T17:02:53.426Z,6.90
2023-01-18T17:05:20.967Z,7.72
2023-01-18T17:07:48.275Z,5.70
2023-01-18T17:10:38.720Z,9.60
2023-01-18T17:13:05.608Z,9.70
2023-01-18T17:15:34.850Z,8.50
2023-01-18T17:18:02.828Z,9.90
2023-01-18T17:20:30.492Z,7.97
2023-01-18T17:22:57.717Z,8.02
2023-01-18T17:25:24.794Z,6.80
2023-01-18T17:27:51.756Z,6.78
2023-01-18T17:30:21.404Z,7.12
2023-01-18T17:32:49.107Z,7.22
2023-01-18T17:35:18.160Z,9.10
2023-01-18T17:37:45.933Z,10.65
2023-01-18T17:40:22.563Z,15.25
2023-01-18T17:42:52.905Z,10.43
2023-01-18T17:45:19.897Z,7.65
2023-01-18T17:47:46.770Z,7.87
2023-01-18T17:50:19.102Z,4.65
2023-01-18T17:52:46.054Z,5.25
2023-01-18T17:55:13.735Z,6.75
2023-01-18T17:57:42.005Z,8.60
2023-01-18T18:00:11.930Z,7.10
2023-01-18T18:02:38.863Z,7.43
2023-01-18T18:05:06.269Z,8.68
2023-01-18T18:07:33.422Z,8.18
2023-01-18T18:10:04.919Z,8.20
2023-01-18T18:12:33.729Z,7.70
2023-01-18T18:15:01.741Z,6.57
2023-01-18T18:17:30.278Z,6.93
2023-01-18T18:19:57.307Z,7.03
2023-01-18T18:22:24.369Z,7.45
2023-01-18T18:24:51.636Z,12.70
2023-01-18T18:27:19.077Z,3.83
2023-01-18T18:29:46.100Z,3.40
2023-01-18T18:32:13.884Z,2.80
2023-01-18T18:34:40.894Z,4.95
2023-01-18T18:37:07.897Z,8.75
2023-01-18T18:39:35.025Z,8.40
2023-01-18T18:42:01.977Z,7.53
2023-01-18T18:44:28.998Z,7.78
2023-01-18T18:46:55.854Z,7.15
2023-01-18T18:49:22.737Z,5.12
2023-01-18T18:51:50.184Z,2.40
2023-01-18T18:54:17.095Z,2.40
2023-01-18T18:56:44.150Z,2.33
2023-01-18T18:59:11.092Z,2.22
2023-01-18T19:01:38.067Z,1.77
2023-01-18T19:04:05.488Z,3.25
2023-01-18T19:06:34.932Z,3.30
2023-01-18T19:09:01.859Z,2.20
2023-01-18T19:11:28.832Z,1.95
2023-01-18T19:13:56.439Z,2.42
2023-01-18T19:16:23.388Z,2.25
2023-01-18T19:18:50.342Z,1.70
2023-01-18T19:21:18.578Z,1.73
2023-01-18T19:23:45.454Z,2.30
2023-01-18T19:26:13.086Z,2.25
2023-01-18T19:28:40.825Z,2.35
2023-01-18T19:31:08.806Z,2.47
2023-01-18T19:33:35.827Z,2.97
2023-01-18T19:36:11.587Z,2.70
2023-01-18T19:38:46.741Z,3.47
2023-01-18T19:41:16.476Z,3.95
2023-01-18T19:43:44.595Z,4.55
2023-01-18T19:46:13.558Z,4.80
2023-01-18T19:48:40.559Z,5.95
2023-01-18T19:51:20.680Z,5.55
2023-01-18T19:53:48.381Z,6.03
2023-01-18T19:56:15.250Z,6.47
2023-01-18T19:58:42.172Z,6.93
2023-01-18T20:01:26.661Z,6.85
2023-01-18T20:03:57.418Z,6.70
2023-01-18T20:06:24.323Z,7.10
2023-01-18T20:08:51.838Z,7.45
2023-01-18T20:11:19.094Z,5.75
2023-01-18T20:13:50.479Z,5.55
2023-01-18T20:16:20.555Z,6.90
2023-01-18T20:18:48.840Z,7.70
2023-01-18T20:21:17.363Z,6.75
2023-01-18T20:23:45.258Z,7.18
2023-01-18T20:26:13.559Z,6.87
2023-01-18T20:28:41.473Z,9.50
2023-01-18T20:31:10.327Z,12.25
2023-01-18T20:33:39.036Z,11.43
2023-01-18T20:36:07.073Z,11.98
2023-01-18T20:38:34.329Z,13.82
2023-01-18T20:41:01.546Z,12.48
2023-01-18T20:43:28.459Z,13.00
2023-01-18T20:46:10.199Z,13.82
2023-01-18T20:48:38.003Z,13.45
2023-01-18T20:51:06.707Z,13.15
2023-01-18T20:53:33.960Z,15.60
2023-01-18T20:56:05.079Z,12.63
2023-01-18T20:58:32.069Z,12.65
2023-01-18T21:01:05.589Z,8.18
2023-01-18T21:03:32.667Z,10.13
2023-01-18T21:05:59.656Z,8.30
2023-01-18T21:08:26.534Z,8.02
2023-01-18T21:10:53.481Z,8.90
2023-01-18T21:13:20.415Z,8.43
2023-01-18T21:15:54.582Z,11.85
2023-01-18T21:18:21.481Z,11.20
2023-01-18T21:20:55.193Z,11.43
2023-01-18T21:23:27.963Z,10.27
2023-01-18T21:25:58.941Z,9.70
2023-01-18T21:28:26.562Z,9.60
2023-01-18T21:30:55.600Z,11.45
2023-01-18T21:33:24.093Z,13.00
2023-01-18T21:35:52.998Z,13.15
2023-01-18T21:38:21.066Z,11.43
2023-01-18T21:40:48.025Z,9.85
2023-01-18T21:43:40.423Z,9.43
2023-01-18T21:46:11.164Z,8.93
2023-01-18T21:48:38.102Z,7.75
2023-01-18T21:51:24.713Z,6.50
2023-01-18T21:54:14.934Z,5.78
2023-01-18T21:56:43.075Z,4.43
2023-01-18T21:59:10.227Z,5.37
2023-01-18T22:01:40.903Z,4.47
2023-01-18T22:04:29.245Z,4.62
2023-01-18T22:06:57.942Z,5.75
2023-01-18T22:09:26.565Z,5.80
2023-01-18T22:11:54.151Z,4.50
2023-01-18T22:14:21.009Z,4.93
2023-01-18T22:19:15.260Z,4.87
2023-01-18T22:21:43.014Z,5.40
2023-01-18T22:24:09.884Z,5.50
2023-01-18T22:26:36.769Z,4.90
2023-01-18T22:29:03.660Z,5.07
2023-01-18T22:31:30.673Z,4.85
2023-01-18T22:33:57.925Z,3.87
2023-01-18T22:36:25.283Z,3.30
2023-01-18T22:38:54.072Z,3.35
2023-01-18T22:41:26.231Z,2.90
2023-01-18T22:43:54.171Z,2.85
2023-01-18T22:46:22.258Z,2.70
2023-01-18T22:48:49.354Z,2.30
2023-01-18T22:51:18.750Z,2.60
2023-01-18T22:53:45.752Z,1.90
2023-01-18T22:56:18.027Z,1.77
2023-01-18T22:58:45.170Z,1.52
2023-01-18T23:01:26.132Z,1.75
2023-01-18T23:03:55.853Z,1.42
2023-01-18T23:06:22.813Z,1.70
2023-01-18T23:08:49.811Z,1.58
2023-01-18T23:11:19.141Z,1.48
2023-01-18T23:14:08.886Z,1.73
2023-01-18T23:16:54.974Z,1.45
2023-01-18T23:19:24.001Z,1.50
2023-01-18T23:21:51.531Z,1.95
2023-01-18T23:24:18.843Z,1.90
2023-01-18T23:26:45.910Z,2.08
2023-01-18T23:29:12.975Z,2.10
2023-01-18T23:31:39.975Z,2.20
2023-01-18T23:34:07.127Z,2.00
2023-01-18T23:36:34.029Z,2.25
2023-01-18T23:39:19.290Z,1.75
2023-01-18T23:42:04.999Z,1.80
2023-01-18T23:44:50.449Z,1.95
2023-01-18T23:47:36.032Z,1.80
2023-01-18T23:50:21.508Z,1.67
2023-01-18T23:53:07.146Z,1.60
2023-01-18T23:55:34.008Z,2.08
2023-01-18T23:58:01.302Z,1.77
